createdAt,value
2023-03-31T00:00:46.904Z,1.90
2023-03-31T00:03:13.719Z,2.53
2023-03-31T00:05:40.012Z,2.50
2023-03-31T00:08:07.306Z,2.10
2023-03-31T00:10:34.895Z,2.13
2023-03-31T00:13:01.679Z,1.90
2023-03-31T00:15:28.420Z,1.97
2023-03-31T00:17:54.915Z,1.97
2023-03-31T00:20:21.172Z,2.43
2023-03-31T00:22:47.505Z,2.00
2023-03-31T00:25:14.127Z,2.10
2023-03-31T00:27:46.708Z,2.00
2023-03-31T00:30:14.300Z,2.30
2023-03-31T00:32:40.617Z,2.00
2023-03-31T00:35:06.994Z,2.23
2023-03-31T00:37:33.829Z,2.03
2023-03-31T00:40:00.402Z,1.90
2023-03-31T00:42:26.665Z,2.13
2023-03-31T00:45:12.792Z,1.90
2023-03-31T00:47:40.690Z,2.00
2023-03-31T00:50:14.909Z,2.20
2023-03-31T00:52:41.659Z,1.77
2023-03-31T00:55:14.275Z,1.73
2023-03-31T00:57:41.127Z,2.37
2023-03-31T01:00:15.494Z,1.37
2023-03-31T01:02:58.433Z,1.60
2023-03-31T01:05:31.061Z,2.10
2023-03-31T01:07:59.328Z,1.70
2023-03-31T01:10:25.849Z,1.70
2023-03-31T01:12:53.644Z,1.77
2023-03-31T01:15:20.385Z,1.50
2023-03-31T01:17:47.481Z,1.57
2023-03-31T01:20:31.966Z,1.90
2023-03-31T01:23:01.548Z,1.80
2023-03-31T01:25:35.233Z,1.87
2023-03-31T01:28:08.776Z,1.70
2023-03-31T01:31:01.612Z,1.60
2023-03-31T01:33:44.452Z,1.67
2023-03-31T01:36:17.051Z,1.90
2023-03-31T01:38:52.206Z,1.80
2023-03-31T01:41:28.610Z,1.50
2023-03-31T01:44:13.301Z,1.70
2023-03-31T01:46:57.946Z,1.70
2023-03-31T01:49:29.705Z,1.63
2023-03-31T01:52:08.892Z,1.80
2023-03-31T01:54:46.653Z,1.40
2023-03-31T01:57:14.739Z,1.50
2023-03-31T01:59:46.369Z,1.50
2023-03-31T02:02:17.515Z,1.50
2023-03-31T02:04:47.422Z,1.83
2023-03-31T02:07:17.557Z,1.20
2023-03-31T02:09:45.432Z,1.50
2023-03-31T02:12:11.947Z,1.73
2023-03-31T02:14:41.086Z,1.47
2023-03-31T02:17:08.299Z,1.37
2023-03-31T02:19:38.321Z,1.60
2023-03-31T02:22:05.444Z,2.20
2023-03-31T02:24:33.107Z,1.43
2023-03-31T02:27:18.237Z,1.70
2023-03-31T02:29:44.630Z,1.67
2023-03-31T02:32:26.843Z,1.30
2023-03-31T02:34:54.351Z,1.80
2023-03-31T02:37:20.769Z,1.50
2023-03-31T02:39:48.657Z,1.43
2023-03-31T02:42:15.228Z,1.20
2023-03-31T02:44:41.500Z,1.10
2023-03-31T02:47:09.476Z,1.40
2023-03-31T02:49:37.156Z,1.30
2023-03-31T02:52:15.810Z,1.43
2023-03-31T02:54:47.877Z,1.40
2023-03-31T02:57:26.109Z,1.53
2023-03-31T03:00:08.417Z,1.40
2023-03-31T03:02:43.560Z,1.60
2023-03-31T03:05:23.732Z,1.77
2023-03-31T03:08:06.595Z,1.57
2023-03-31T03:10:38.537Z,1.30
2023-03-31T03:13:17.110Z,1.30
2023-03-31T03:15:46.191Z,1.10
2023-03-31T03:18:12.658Z,1.60
2023-03-31T03:20:42.484Z,1.47
2023-03-31T03:23:08.773Z,1.40
2023-03-31T03:25:35.207Z,1.50
2023-03-31T03:28:01.489Z,1.40
2023-03-31T03:30:27.850Z,1.13
2023-03-31T03:32:56.091Z,1.50
2023-03-31T03:35:22.423Z,1.50
2023-03-31T03:37:48.706Z,1.27
2023-03-31T03:40:15.355Z,1.30
2023-03-31T03:42:41.655Z,1.37
2023-03-31T03:45:08.240Z,1.37
2023-03-31T03:47:34.677Z,1.70
2023-03-31T03:50:00.981Z,1.40
2023-03-31T03:52:27.291Z,1.60
2023-03-31T03:54:53.524Z,1.37
2023-03-31T03:57:19.819Z,1.40
2023-03-31T03:59:46.171Z,1.40
2023-03-31T04:02:12.594Z,1.17
2023-03-31T04:04:38.897Z,1.40
2023-03-31T04:07:05.368Z,1.60
2023-03-31T04:09:31.677Z,1.50
2023-03-31T04:11:57.995Z,1.90
2023-03-31T04:14:25.919Z,1.43
2023-03-31T04:16:52.201Z,1.90
2023-03-31T04:19:18.533Z,1.70
2023-03-31T04:21:45.231Z,1.53
2023-03-31T04:24:16.133Z,1.47
2023-03-31T04:26:45.389Z,1.30
2023-03-31T04:29:22.622Z,1.77
2023-03-31T04:31:50.771Z,1.53
2023-03-31T04:34:17.141Z,1.73
2023-03-31T04:36:47.566Z,1.60
2023-03-31T04:39:15.296Z,1.60
2023-03-31T04:41:41.631Z,1.57
2023-03-31T04:44:08.204Z,1.50
2023-03-31T04:46:35.284Z,1.97
2023-03-31T04:49:02.897Z,1.47
2023-03-31T04:51:29.280Z,1.80
2023-03-31T04:53:55.922Z,1.50
2023-03-31T04:56:22.841Z,1.40
2023-03-31T04:58:49.127Z,1.70
2023-03-31T05:01:18.322Z,1.60
2023-03-31T05:03:45.811Z,2.00
2023-03-31T05:06:12.157Z,1.50
2023-03-31T05:08:38.502Z,1.40
2023-03-31T05:11:04.859Z,1.40
2023-03-31T05:13:31.100Z,1.50
2023-03-31T05:15:57.361Z,1.73
2023-03-31T05:18:23.679Z,1.80
2023-03-31T05:20:49.921Z,1.63
2023-03-31T05:23:16.197Z,1.90
2023-03-31T05:25:42.609Z,1.63
2023-03-31T05:28:10.072Z,1.87
2023-03-31T05:30:36.515Z,2.03
2023-03-31T05:33:02.893Z,1.70
2023-03-31T05:35:30.004Z,1.70
2023-03-31T05:37:56.261Z,2.27
2023-03-31T05:40:22.564Z,1.87
2023-03-31T05:42:48.837Z,1.60
2023-03-31T05:45:15.287Z,1.50
2023-03-31T05:47:41.644Z,2.27
2023-03-31T05:50:09.293Z,1.80
2023-03-31T05:52:36.263Z,2.13
2023-03-31T05:55:03.205Z,2.07
2023-03-31T05:57:29.578Z,1.60
2023-03-31T05:59:56.052Z,1.80
2023-03-31T06:02:22.577Z,1.83
2023-03-31T06:04:48.857Z,1.60
2023-03-31T06:07:17.754Z,1.70
2023-03-31T06:09:44.054Z,1.90
2023-03-31T06:12:10.303Z,1.63
2023-03-31T06:14:36.573Z,2.30
2023-03-31T06:17:02.911Z,2.20
2023-03-31T06:19:29.269Z,2.20
2023-03-31T06:21:55.653Z,2.30
2023-03-31T06:24:21.968Z,2.13
2023-03-31T06:26:48.228Z,1.87
2023-03-31T06:29:14.505Z,2.10
2023-03-31T06:31:40.888Z,2.07
2023-03-31T06:34:07.183Z,2.83
2023-03-31T06:36:34.102Z,2.20
2023-03-31T06:39:00.496Z,2.40
2023-03-31T06:41:27.332Z,2.40
2023-03-31T06:43:53.666Z,2.03
2023-03-31T06:46:20.073Z,1.97
2023-03-31T06:48:46.378Z,2.20
2023-03-31T06:51:13.086Z,2.00
2023-03-31T06:53:39.405Z,2.00
2023-03-31T06:56:06.661Z,2.00
2023-03-31T06:58:33.557Z,2.47
2023-03-31T07:01:01.943Z,2.10
2023-03-31T07:03:29.572Z,1.67
2023-03-31T07:05:56.555Z,2.00
2023-03-31T07:08:23.405Z,2.00
2023-03-31T07:10:50.608Z,2.07
2023-03-31T07:13:17.647Z,2.03
2023-03-31T07:15:44.458Z,1.80
2023-03-31T07:18:10.763Z,1.70
2023-03-31T07:20:38.076Z,1.73
2023-03-31T07:23:05.040Z,2.17
2023-03-31T07:25:31.497Z,1.50
2023-03-31T07:27:57.814Z,2.00
2023-03-31T07:30:24.611Z,1.50
2023-03-31T07:32:51.852Z,1.80
2023-03-31T07:35:19.034Z,1.67
2023-03-31T07:37:46.557Z,1.80
2023-03-31T07:40:17.545Z,1.80
2023-03-31T07:42:45.509Z,2.00
2023-03-31T07:45:15.025Z,1.57
2023-03-31T07:47:41.420Z,1.83
2023-03-31T07:50:08.208Z,1.70
2023-03-31T07:52:34.652Z,1.70
2023-03-31T07:55:00.948Z,1.53
2023-03-31T07:57:27.597Z,1.50
2023-03-31T07:59:53.980Z,1.77
2023-03-31T08:02:20.529Z,1.53
2023-03-31T08:04:47.312Z,1.70
2023-03-31T08:07:14.719Z,1.70
2023-03-31T08:09:41.265Z,1.50
2023-03-31T08:12:07.559Z,1.60
2023-03-31T08:14:40.373Z,1.80
2023-03-31T08:17:07.718Z,1.60
2023-03-31T08:19:34.002Z,2.07
2023-03-31T08:22:00.315Z,1.83
2023-03-31T08:24:26.565Z,1.53
2023-03-31T08:26:52.947Z,1.83
2023-03-31T08:29:19.240Z,1.50
2023-03-31T08:31:45.741Z,1.90
2023-03-31T08:34:12.042Z,1.90
2023-03-31T08:36:38.267Z,1.90
2023-03-31T08:39:04.833Z,1.97
2023-03-31T08:41:37.394Z,1.63
2023-03-31T08:44:07.721Z,1.57
2023-03-31T08:46:35.696Z,1.80
2023-03-31T08:49:03.352Z,1.47
2023-03-31T08:51:41.277Z,2.10
2023-03-31T08:54:16.829Z,1.90
2023-03-31T08:56:46.004Z,1.53
2023-03-31T08:59:29.414Z,1.73
2023-03-31T09:02:05.455Z,1.77
2023-03-31T09:04:34.567Z,1.53
2023-03-31T09:07:10.103Z,1.70
2023-03-31T09:09:58.397Z,1.40
2023-03-31T09:12:27.355Z,1.80
2023-03-31T09:15:01.186Z,1.70
2023-03-31T09:17:30.268Z,1.73
2023-03-31T09:20:08.747Z,1.60
2023-03-31T09:22:37.790Z,1.80
2023-03-31T09:25:04.056Z,1.23
2023-03-31T09:27:32.566Z,1.83
2023-03-31T09:30:01.691Z,1.50
2023-03-31T09:32:29.238Z,1.40
2023-03-31T09:34:57.568Z,1.70
2023-03-31T09:37:26.500Z,1.90
2023-03-31T09:39:52.758Z,1.50
2023-03-31T09:42:19.310Z,1.73
2023-03-31T09:44:46.914Z,1.50
2023-03-31T09:47:16.903Z,1.47
2023-03-31T09:49:53.408Z,1.57
2023-03-31T09:52:27.154Z,1.43
2023-03-31T09:54:54.982Z,2.03
2023-03-31T09:57:26.443Z,1.97
2023-03-31T09:59:53.447Z,1.70
2023-03-31T10:02:25.388Z,1.43
2023-03-31T10:04:52.370Z,1.70
2023-03-31T10:07:23.108Z,1.43
2023-03-31T10:09:49.361Z,1.30
2023-03-31T10:12:16.741Z,1.20
2023-03-31T10:14:47.839Z,1.67
2023-03-31T10:17:18.494Z,1.70
2023-03-31T10:19:52.734Z,1.63
2023-03-31T10:22:22.139Z,1.60
2023-03-31T10:24:49.871Z,1.80
2023-03-31T10:27:17.873Z,1.83
2023-03-31T10:29:45.334Z,1.80
2023-03-31T10:32:25.702Z,1.83
2023-03-31T10:34:52.109Z,1.50
2023-03-31T10:37:22.499Z,1.53
2023-03-31T10:39:56.357Z,1.80
2023-03-31T10:42:23.319Z,1.50
2023-03-31T10:44:49.867Z,1.73
2023-03-31T10:47:18.711Z,1.77
2023-03-31T10:49:47.864Z,2.07
2023-03-31T10:52:16.569Z,1.80
2023-03-31T10:54:49.990Z,1.70
2023-03-31T10:57:17.009Z,1.90
2023-03-31T11:00:01.921Z,1.80
2023-03-31T11:02:48.235Z,1.60
2023-03-31T11:05:26.912Z,1.80
2023-03-31T11:08:15.218Z,1.80
2023-03-31T11:10:51.759Z,1.73
2023-03-31T11:13:38.005Z,1.30
2023-03-31T11:16:12.884Z,1.50
2023-03-31T11:18:49.869Z,1.37
2023-03-31T11:21:17.016Z,1.50
2023-03-31T11:23:43.317Z,1.50
2023-03-31T11:26:22.759Z,1.70
2023-03-31T11:28:58.845Z,1.23
2023-03-31T11:31:34.462Z,1.60
2023-03-31T11:34:19.425Z,1.80
2023-03-31T11:36:50.755Z,1.43
2023-03-31T11:39:30.532Z,1.87
2023-03-31T11:42:01.975Z,1.80
2023-03-31T11:44:30.715Z,1.73
2023-03-31T11:47:00.689Z,1.70
2023-03-31T11:49:32.299Z,1.70
2023-03-31T11:52:11.888Z,1.70
2023-03-31T11:54:55.976Z,1.90
2023-03-31T11:57:27.529Z,1.90
2023-03-31T11:59:56.093Z,1.97
2023-03-31T12:02:41.422Z,2.07
2023-03-31T12:05:09.314Z,1.90
2023-03-31T12:07:41.799Z,2.43
2023-03-31T12:10:18.713Z,2.43
2023-03-31T12:12:47.796Z,2.07
2023-03-31T12:15:14.807Z,2.17
2023-03-31T12:17:43.368Z,2.20
2023-03-31T12:20:18.311Z,2.47
2023-03-31T12:22:45.393Z,1.80
2023-03-31T12:25:15.910Z,1.80
2023-03-31T12:27:43.858Z,2.27
2023-03-31T12:30:16.142Z,1.43
2023-03-31T12:32:53.510Z,1.83
2023-03-31T12:35:25.261Z,1.80
2023-03-31T12:38:01.152Z,1.63
2023-03-31T12:40:27.412Z,1.90
2023-03-31T12:42:53.726Z,1.90
2023-03-31T12:45:40.883Z,2.00
2023-03-31T12:48:13.359Z,1.73
2023-03-31T12:50:46.542Z,1.90
2023-03-31T12:53:24.858Z,1.67
2023-03-31T12:55:55.413Z,1.40
2023-03-31T12:58:24.941Z,1.60
2023-03-31T13:01:07.241Z,1.70
2023-03-31T13:03:33.949Z,1.90
2023-03-31T13:06:00.353Z,1.80
2023-03-31T13:08:45.379Z,2.20
2023-03-31T13:11:11.901Z,2.30
2023-03-31T13:16:31.398Z,2.50
2023-03-31T13:18:57.817Z,2.70
2023-03-31T13:21:27.264Z,2.83
2023-03-31T13:23:53.786Z,2.63
2023-03-31T13:26:32.423Z,2.70
2023-03-31T13:29:14.015Z,2.80
2023-03-31T13:32:11.101Z,2.47
2023-03-31T13:34:43.080Z,2.93
2023-03-31T13:37:27.958Z,2.33
2023-03-31T13:40:13.496Z,5.57
2023-03-31T13:42:52.369Z,3.40
2023-03-31T13:45:38.609Z,4.37
2023-03-31T13:48:18.711Z,2.60
2023-03-31T13:51:03.772Z,2.40
2023-03-31T13:53:37.943Z,2.07
2023-03-31T13:56:23.826Z,2.40
2023-03-31T13:59:13.441Z,2.13
2023-03-31T14:01:45.308Z,2.33
2023-03-31T14:04:30.907Z,1.70
2023-03-31T14:06:59.191Z,2.03
2023-03-31T14:09:35.116Z,1.53
2023-03-31T14:12:18.421Z,1.33
2023-03-31T14:14:44.681Z,1.10
2023-03-31T14:17:11.643Z,1.37
2023-03-31T14:19:56.812Z,1.30
2023-03-31T14:22:32.463Z,0.80
2023-03-31T14:25:06.523Z,0.93
2023-03-31T14:27:58.428Z,0.90
2023-03-31T14:30:29.359Z,0.90
2023-03-31T14:33:09.790Z,0.80
2023-03-31T14:35:42.989Z,1.00
2023-03-31T14:38:16.193Z,1.00
2023-03-31T14:40:47.959Z,0.80
2023-03-31T14:43:21.396Z,0.87
2023-03-31T14:45:47.661Z,0.90
2023-03-31T14:48:15.085Z,1.20
2023-03-31T14:50:45.941Z,1.00
2023-03-31T14:53:16.290Z,0.93
2023-03-31T14:55:57.857Z,1.10
2023-03-31T14:58:26.739Z,1.10
2023-03-31T15:00:53.955Z,0.77
2023-03-31T15:03:20.287Z,0.93
2023-03-31T15:05:49.012Z,0.93
2023-03-31T15:08:22.197Z,1.00
2023-03-31T15:10:54.054Z,1.00
2023-03-31T15:14:03.599Z,0.93
2023-03-31T15:16:42.756Z,0.80
2023-03-31T15:19:22.895Z,0.90
2023-03-31T15:22:19.076Z,0.90
2023-03-31T15:24:46.520Z,1.03
2023-03-31T15:27:35.936Z,1.00
2023-03-31T15:30:06.156Z,1.00
2023-03-31T15:32:35.816Z,1.03
2023-03-31T15:35:18.585Z,0.90
2023-03-31T15:37:49.542Z,0.90
2023-03-31T15:40:19.477Z,1.00
2023-03-31T15:42:55.259Z,1.30
2023-03-31T15:45:37.336Z,0.93
2023-03-31T15:48:05.588Z,0.97
2023-03-31T15:50:33.269Z,1.10
2023-03-31T15:53:01.265Z,1.10
2023-03-31T15:55:31.915Z,1.00
2023-03-31T15:57:59.520Z,1.13
2023-03-31T16:00:32.006Z,1.10
2023-03-31T16:02:59.464Z,1.37
2023-03-31T16:05:37.344Z,1.40
2023-03-31T16:08:13.031Z,1.10
2023-03-31T16:10:39.770Z,1.33
2023-03-31T16:13:11.594Z,1.20
2023-03-31T16:15:40.408Z,1.10
2023-03-31T16:18:09.418Z,1.00
2023-03-31T16:20:37.373Z,1.13
2023-03-31T16:23:12.022Z,1.40
2023-03-31T16:25:39.800Z,5.77
2023-03-31T16:28:06.616Z,1.40
2023-03-31T16:30:37.468Z,1.27
2023-03-31T16:33:05.016Z,1.00
2023-03-31T16:35:39.639Z,0.90
2023-03-31T16:38:07.397Z,1.27
2023-03-31T16:40:41.071Z,1.30
2023-03-31T16:43:10.772Z,1.40
2023-03-31T16:45:37.056Z,1.10
2023-03-31T16:48:15.108Z,1.20
2023-03-31T16:50:43.702Z,1.00
2023-03-31T16:53:12.137Z,1.13
2023-03-31T16:55:38.421Z,1.23
2023-03-31T16:58:04.800Z,1.37
2023-03-31T17:00:32.114Z,1.30
2023-03-31T17:02:59.207Z,1.40
2023-03-31T17:05:25.663Z,1.17
2023-03-31T17:07:52.617Z,1.23
2023-03-31T17:10:19.112Z,1.43
2023-03-31T17:12:45.393Z,1.40
2023-03-31T17:15:12.006Z,1.30
2023-03-31T17:17:38.490Z,2.67
2023-03-31T17:20:06.530Z,1.60
2023-03-31T17:22:33.092Z,3.10
2023-03-31T17:24:59.381Z,1.70
2023-03-31T17:27:27.264Z,1.70
2023-03-31T17:29:53.885Z,1.40
2023-03-31T17:32:20.482Z,1.70
2023-03-31T17:34:50.378Z,4.80
2023-03-31T17:37:16.902Z,1.80
2023-03-31T17:39:43.463Z,1.63
2023-03-31T17:42:10.302Z,3.87
2023-03-31T17:44:36.640Z,2.00
2023-03-31T17:47:03.415Z,1.60
2023-03-31T17:49:29.706Z,1.80
2023-03-31T17:51:56.005Z,1.63
2023-03-31T17:54:22.314Z,2.00
2023-03-31T17:56:50.250Z,2.30
2023-03-31T17:59:17.184Z,2.10
2023-03-31T18:01:43.679Z,2.10
2023-03-31T18:04:10.324Z,2.47
2023-03-31T18:06:36.616Z,2.63
2023-03-31T18:09:06.092Z,2.43
2023-03-31T18:11:32.711Z,2.40
2023-03-31T18:14:01.912Z,2.53
2023-03-31T18:16:29.240Z,3.20
2023-03-31T18:18:55.848Z,3.47
2023-03-31T18:21:23.889Z,2.90
2023-03-31T18:23:55.065Z,2.67
2023-03-31T18:26:23.607Z,2.70
2023-03-31T18:28:50.442Z,2.47
2023-03-31T18:31:16.781Z,2.43
2023-03-31T18:33:43.276Z,2.60
2023-03-31T18:36:14.533Z,2.90
2023-03-31T18:38:41.172Z,14.50
2023-03-31T18:41:07.959Z,5.03
2023-03-31T18:43:34.597Z,3.43
2023-03-31T18:46:01.341Z,3.00
2023-03-31T18:48:27.715Z,2.97
2023-03-31T18:50:54.119Z,3.30
2023-03-31T18:53:21.082Z,2.57
2023-03-31T18:55:50.627Z,2.60
2023-03-31T18:58:17.392Z,2.50
2023-03-31T19:00:44.063Z,2.23
2023-03-31T19:03:10.815Z,2.80
2023-03-31T19:05:37.436Z,2.93
2023-03-31T19:08:03.746Z,3.30
2023-03-31T19:10:30.095Z,3.00
2023-03-31T19:12:56.980Z,3.23
2023-03-31T19:15:23.476Z,3.40
2023-03-31T19:17:49.757Z,3.67
2023-03-31T19:20:18.909Z,3.60
2023-03-31T19:22:46.282Z,3.30
2023-03-31T19:25:12.876Z,3.60
2023-03-31T19:27:39.604Z,3.23
2023-03-31T19:30:06.778Z,3.80
2023-03-31T19:32:33.242Z,3.97
2023-03-31T19:34:59.491Z,4.03
2023-03-31T19:37:25.781Z,4.10
2023-03-31T19:39:52.296Z,4.10
2023-03-31T19:42:18.622Z,4.57
2023-03-31T19:44:45.809Z,4.37
2023-03-31T19:47:12.572Z,4.27
2023-03-31T19:49:38.820Z,4.80
2023-03-31T19:52:05.637Z,4.50
2023-03-31T19:54:32.008Z,4.60
2023-03-31T19:56:58.327Z,4.53
2023-03-31T19:59:24.778Z,5.27
2023-03-31T20:01:51.576Z,5.30
2023-03-31T20:04:18.472Z,5.23
2023-03-31T20:06:46.536Z,5.90
2023-03-31T20:09:14.057Z,5.00
2023-03-31T20:11:42.399Z,5.57
2023-03-31T20:14:09.988Z,5.53
2023-03-31T20:16:36.532Z,5.43
2023-03-31T20:19:05.036Z,5.60
2023-03-31T20:21:32.095Z,5.43
2023-03-31T20:23:58.956Z,12.83
2023-03-31T20:26:29.418Z,6.40
2023-03-31T20:28:56.755Z,6.37
2023-03-31T20:31:24.748Z,5.90
2023-03-31T20:33:51.621Z,6.87
2023-03-31T20:36:19.437Z,5.73
2023-03-31T20:38:47.387Z,5.43
2023-03-31T20:41:14.852Z,5.13
2023-03-31T20:43:41.376Z,5.47
2023-03-31T20:46:08.526Z,5.80
2023-03-31T20:48:36.273Z,5.27
2023-03-31T20:51:02.573Z,5.57
2023-03-31T20:53:28.831Z,5.80
2023-03-31T20:55:55.262Z,4.70
2023-03-31T20:58:21.725Z,5.10
2023-03-31T21:00:48.233Z,4.50
2023-03-31T21:03:14.712Z,4.77
2023-03-31T21:05:42.439Z,4.87
2023-03-31T21:08:08.692Z,4.40
2023-03-31T21:10:42.308Z,4.20
2023-03-31T21:13:09.444Z,4.10
2023-03-31T21:15:35.666Z,4.07
2023-03-31T21:18:01.995Z,3.57
2023-03-31T21:20:28.467Z,3.70
2023-03-31T21:22:57.214Z,3.00
2023-03-31T21:25:24.172Z,2.73
2023-03-31T21:27:50.892Z,2.60
2023-03-31T21:30:17.885Z,2.40
2023-03-31T21:32:44.370Z,2.30
2023-03-31T21:35:11.156Z,2.43
2023-03-31T21:37:37.649Z,2.40
2023-03-31T21:40:04.233Z,2.20
2023-03-31T21:42:32.470Z,2.30
2023-03-31T21:44:58.964Z,2.03
2023-03-31T21:47:25.661Z,2.00
2023-03-31T21:49:52.422Z,2.10
2023-03-31T21:52:18.703Z,2.20
2023-03-31T21:54:45.192Z,2.30
2023-03-31T21:57:11.894Z,2.50
2023-03-31T21:59:38.343Z,2.77
2023-03-31T22:02:05.006Z,2.40
2023-03-31T22:04:32.141Z,2.33
2023-03-31T22:06:58.526Z,2.33
2023-03-31T22:09:24.795Z,2.30
2023-03-31T22:11:51.520Z,2.13
2023-03-31T22:14:17.794Z,2.40
2023-03-31T22:16:44.066Z,2.40
2023-03-31T22:19:12.635Z,1.80
2023-03-31T22:21:38.887Z,2.00
2023-03-31T22:24:05.545Z,2.07
2023-03-31T22:26:32.088Z,1.80
2023-03-31T22:28:58.749Z,1.90
2023-03-31T22:31:26.872Z,1.70
2023-03-31T22:33:53.405Z,1.93
2023-03-31T22:36:20.267Z,2.00
2023-03-31T22:38:46.557Z,2.00
2023-03-31T22:41:12.835Z,2.10
2023-03-31T22:43:39.660Z,1.90
2023-03-31T22:46:07.127Z,2.07
2023-03-31T22:48:33.881Z,2.00
2023-03-31T22:51:06.504Z,1.80
2023-03-31T22:53:33.240Z,1.77
2023-03-31T22:56:03.478Z,1.80
2023-03-31T22:58:29.732Z,2.10
2023-03-31T23:00:59.528Z,1.90
2023-03-31T23:03:27.042Z,2.23
2023-03-31T23:05:53.392Z,1.97
2023-03-31T23:08:19.688Z,1.87
2023-03-31T23:10:59.274Z,1.77
2023-03-31T23:13:25.982Z,2.13
2023-03-31T23:15:52.232Z,1.63
2023-03-31T23:18:18.923Z,1.90
2023-03-31T23:20:45.697Z,1.73
2023-03-31T23:23:11.964Z,1.63
2023-03-31T23:25:38.229Z,1.70
2023-03-31T23:28:04.626Z,1.90
2023-03-31T23:30:31.156Z,1.67
2023-03-31T23:32:58.022Z,1.83
2023-03-31T23:35:24.315Z,1.70
2023-03-31T23:37:50.814Z,1.77
2023-03-31T23:40:17.138Z,1.70
2023-03-31T23:42:43.416Z,1.90
2023-03-31T23:45:09.868Z,1.50
2023-03-31T23:47:40.609Z,1.50
2023-03-31T23:50:07.780Z,1.93
2023-03-31T23:52:35.992Z,1.53
2023-03-31T23:55:03.166Z,1.87
2023-03-31T23:57:29.543Z,1.80
2023-03-31T23:59:56.058Z,1.80
